1,427,907개(29651/71396페이지)
LECTURE
번호 제목 글쓴이 조회 날짜
834907 Lịch Thi Đấu Bóng Đá Cup C1 Mùa Giải 202 MelchiorsenHolland4495 18 2022.02.20 13:00
834906 Online Slots Rules--There Are Only Three PridgenCantu5199 27 2022.02.20 13:00
834905 Black Camouflaged Poker Spade T-shirt cr KeithShoemaker0522 15 2022.02.20 13:00
834904 Have Questions About Chiropractic care C McClellanMahmoud5058 18 2022.02.20 12:59
834903 Báo Bóng Đá DiazFoldager3199 14 2022.02.20 12:59
834902 It Is Our Job To Coach Yourself On Web M BrinkValentine2850 9 2022.02.20 12:59
834901 79 Lat Temu Rozpoczęła Się II Wojna świa 사진 BrandstrupAllen3833 13 2022.02.20 12:59
834900 Bet On Sports - How To Place Bets On Spo HelboHarboe4248 15 2022.02.20 12:59
834899 Boost Your Human Hair Wigs With The Foll EngelSchmidt2892 10 2022.02.20 12:59
834898 What you ought to Know When Searching Fo AxelsenChristiansen9282 15 2022.02.20 12:58
834897 Chi Tiết Về 90ptv 90 Phút Television Trự WindButcher6202 23 2022.02.20 12:58
834896 Using Blackjack Strategy Card To Get - T KellerKhan7121 9 2022.02.20 12:58
834895 If You Wish Speedy Recommendations Regar PilegaardHarper4305 14 2022.02.20 12:58
834894 Learn How To Win Online Poker JosephsenPrince1014 22 2022.02.20 12:58
834893 Online Video Marketing Can Help You Loca FeldmanErichsen8038 21 2022.02.20 12:57
834892 Online Poker Strategy That Works For Any CollinsLangley0885 10 2022.02.20 12:57
834891 Situs Judi Slots Online Terbaik yang Sem HunterHickey7933 10 2022.02.20 12:57
834890 Promotion Recommendations It Is Possible PaulGlover6126 13 2022.02.20 12:57
834889 Drukuj Stronę - Kastracja 사진 LaursenChristensen1420 11 2022.02.20 12:57
834888 Attempt Some Video XXX Marketing Guideli RiceCaspersen4190 12 2022.02.20 12:57